Time;durP1;ratioP1;P1;durP2;ratioP2;P2;SDS_P1;SDS_P2;PMS_P1;PMS_P2;Temp;Humidity;BMP_temperature;BMP_pressure;BME280_temperature;BME280_humidity;BME280_pressure;Samples;Min_cycle;Max_cycle;Signal;HPM_P1;HPM_P2
2024/01/08 00:01:05;;;;;;;;;;;8.20;90.10;;;;;;4994399;28;92921;-48
2024/01/08 00:03:30;;;;;;;;;;;8.20;90.10;;;;;;4996967;28;92012;-50
2024/01/08 00:05:56;;;;;;;;;;;8.20;90.10;;;;;;4997019;28;92880;-48
2024/01/08 00:08:22;;;;;;;;;;;8.20;90.10;;;;;;4996836;28;92575;-53
2024/01/08 00:10:47;;;;;;;;;;;8.20;90.10;;;;;;4994167;28;92028;-52
2024/01/08 00:13:13;;;;;;;;;;;8.20;90.10;;;;;;4996712;28;92883;-51
2024/01/08 00:15:38;;;;;;;;;;;8.20;90.10;;;;;;4996151;28;93167;-53
2024/01/08 00:18:04;;;;;;;;;;;8.20;90.00;;;;;;4993702;28;92154;-49
2024/01/08 00:20:29;;;;;;;;;;;8.20;90.00;;;;;;4996770;28;93020;-49
2024/01/08 00:22:55;;;;;;;;;;;8.20;89.90;;;;;;4996105;28;93575;-47
2024/01/08 00:25:21;;;;;;;;;;;8.20;90.00;;;;;;4997419;28;91984;-51
2024/01/08 00:27:48;;;;;;;;;;;8.20;90.10;;;;;;4992874;28;93620;-47
2024/01/08 00:30:14;;;;;;;;;;;8.20;90.00;;;;;;4995542;28;91734;-49
2024/01/08 00:32:40;;;;;;;;;;;8.20;90.10;;;;;;4996865;28;92016;-48
2024/01/08 00:35:06;;;;;;;;;;;8.20;90.00;;;;;;4992950;28;92839;-50
2024/01/08 00:37:35;;;;;;;;;;;8.20;90.00;;;;;;4996327;28;93027;-49
2024/01/08 00:40:01;;;;;;;;;;;8.20;90.10;;;;;;4993362;28;92962;-52
2024/01/08 00:42:27;;;;;;;;;;;8.20;90.00;;;;;;4992463;28;92609;-49
2024/01/08 00:44:52;;;;;;;;;;;8.20;90.00;;;;;;4999222;28;91958;-51
2024/01/08 00:47:18;;;;;;;;;;;8.20;90.00;;;;;;4993119;28;93510;-50
2024/01/08 00:49:44;;;;;;;;;;;8.20;90.00;;;;;;4999605;28;92006;-49
2024/01/08 00:52:09;;;;;;;;;;;8.20;90.00;;;;;;4993414;28;92048;-50
2024/01/08 00:54:35;;;;;;;;;;;8.20;90.00;;;;;;4996076;28;92026;-50
2024/01/08 00:57:01;;;;;;;;;;;8.20;90.20;;;;;;4993409;28;92042;-51
2024/01/08 00:59:26;;;;;;;;;;;8.20;90.00;;;;;;4995497;28;92074;-51
2024/01/08 01:01:52;;;;;;;;;;;8.20;90.00;;;;;;4995121;28;93567;-51
2024/01/08 01:04:17;;;;;;;;;;;8.20;90.00;;;;;;4996036;28;91948;-50
2024/01/08 01:06:44;;;;;;;;;;;8.20;90.00;;;;;;4995862;28;92455;-49
2024/01/08 01:09:09;;;;;;;;;;;8.20;90.00;;;;;;4993131;28;92053;-50
2024/01/08 01:11:35;;;;;;;;;;;8.20;90.00;;;;;;4996675;28;91935;-52
2024/01/08 01:14:01;;;;;;;;;;;8.20;90.00;;;;;;4994532;28;93946;-49
2024/01/08 01:16:29;;;;;;;;;;;8.20;90.00;;;;;;4995106;28;92074;-48
2024/01/08 01:18:55;;;;;;;;;;;8.20;90.00;;;;;;4992876;28;92066;-51
2024/01/08 01:21:21;;;;;;;;;;;8.20;90.00;;;;;;4993715;28;92484;-51
2024/01/08 01:23:47;;;;;;;;;;;8.10;90.00;;;;;;4991995;28;91913;-50
2024/01/08 01:26:13;;;;;;;;;;;8.10;90.00;;;;;;4997777;28;92910;-51
2024/01/08 01:28:38;;;;;;;;;;;8.20;90.00;;;;;;4991829;28;92018;-51
2024/01/08 01:31:04;;;;;;;;;;;8.10;90.00;;;;;;4993458;28;92829;-49
2024/01/08 01:33:30;;;;;;;;;;;8.20;90.00;;;;;;4991358;28;92359;-53
2024/01/08 01:35:55;;;;;;;;;;;8.10;90.00;;;;;;4995135;28;92041;-49
2024/01/08 01:38:21;;;;;;;;;;;8.10;90.00;;;;;;4996807;28;92250;-51
2024/01/08 01:40:46;;;;;;;;;;;8.20;90.00;;;;;;4990912;28;92489;-49
2024/01/08 01:43:19;;;;;;;;;;;8.20;90.00;;;;;;4994545;28;91208;-50
2024/01/08 01:45:44;;;;;;;;;;;8.10;90.00;;;;;;4996662;28;92078;-49
2024/01/08 01:48:10;;;;;;;;;;;8.20;90.00;;;;;;4996245;28;92596;-50
2024/01/08 01:50:35;;;;;;;;;;;8.10;90.10;;;;;;4991203;28;92889;-49
2024/01/08 01:53:01;;;;;;;;;;;8.10;89.90;;;;;;4993881;28;92573;-50
2024/01/08 01:55:26;;;;;;;;;;;8.20;90.00;;;;;;4990901;28;92163;-52
2024/01/08 01:57:52;;;;;;;;;;;8.10;90.00;;;;;;4991713;28;91900;-50
2024/01/08 02:00:18;;;;;;;;;;;8.20;90.00;;;;;;4991475;28;92195;-50
2024/01/08 02:02:44;;;;;;;;;;;8.10;90.00;;;;;;4993217;28;92065;-51
2024/01/08 02:05:11;;;;;;;;;;;8.10;90.00;;;;;;4991780;28;91938;-51
2024/01/08 02:07:38;;;;;;;;;;;8.10;90.00;;;;;;4993214;28;92730;-50
2024/01/08 02:10:03;;;;;;;;;;;8.10;90.00;;;;;;4994613;28;92090;-51
2024/01/08 02:12:29;;;;;;;;;;;8.20;90.00;;;;;;4992509;28;92478;-49
2024/01/08 02:14:55;;;;;;;;;;;8.10;90.00;;;;;;4991061;28;93098;-49
2024/01/08 02:17:20;;;;;;;;;;;8.10;90.00;;;;;;4989527;28;93874;-48
2024/01/08 02:19:46;;;;;;;;;;;8.10;90.10;;;;;;4934218;28;1689588;-49
2024/01/08 02:22:12;;;;;;;;;;;8.10;90.10;;;;;;4992830;28;92088;-48
2024/01/08 02:24:38;;;;;;;;;;;8.10;90.10;;;;;;4993736;28;93007;-50
2024/01/08 02:27:04;;;;;;;;;;;8.10;90.00;;;;;;4992390;28;92488;-50
2024/01/08 02:29:30;;;;;;;;;;;8.10;90.10;;;;;;4997961;28;92009;-49
2024/01/08 02:31:55;;;;;;;;;;;8.10;90.00;;;;;;5002875;28;92893;-49
2024/01/08 02:34:21;;;;;;;;;;;8.10;90.00;;;;;;4992812;28;92834;-50
2024/01/08 02:36:46;;;;;;;;;;;8.10;90.10;;;;;;4992304;28;92285;-49
2024/01/08 02:39:12;;;;;;;;;;;8.10;90.10;;;;;;4989658;28;93548;-51
2024/01/08 02:41:37;;;;;;;;;;;8.10;90.00;;;;;;4994733;28;92180;-50
2024/01/08 02:44:03;;;;;;;;;;;8.10;90.00;;;;;;4994405;28;91942;-55
2024/01/08 02:46:29;;;;;;;;;;;8.10;90.10;;;;;;4992446;28;92432;-50
2024/01/08 02:48:54;;;;;;;;;;;8.10;90.10;;;;;;4992433;28;92168;-50
2024/01/08 02:51:20;;;;;;;;;;;8.10;90.10;;;;;;4996503;28;92458;-51
2024/01/08 02:53:46;;;;;;;;;;;8.10;90.00;;;;;;4993260;28;92086;-50
2024/01/08 02:56:21;;;;;;;;;;;8.00;90.10;;;;;;4992551;28;91675;-51
2024/01/08 02:58:49;;;;;;;;;;;8.10;90.10;;;;;;4990329;28;93512;-50
2024/01/08 03:01:15;;;;;;;;;;;8.00;90.10;;;;;;4993062;28;92103;-52
2024/01/08 03:03:41;;;;;;;;;;;8.00;90.10;;;;;;4994725;28;92877;-49
2024/01/08 03:06:06;;;;;;;;;;;8.00;90.10;;;;;;4992113;27;92522;-49
2024/01/08 03:08:32;;;;;;;;;;;8.10;90.10;;;;;;4993497;28;92025;-51
2024/01/08 03:10:57;;;;;;;;;;;8.00;90.20;;;;;;4998806;28;92405;-51
2024/01/08 03:13:23;;;;;;;;;;;8.00;90.10;;;;;;4999296;28;92594;-49
2024/01/08 03:15:48;;;;;;;;;;;8.00;90.10;;;;;;4993165;28;92862;-49
2024/01/08 03:18:14;;;;;;;;;;;8.10;90.10;;;;;;4988126;28;92511;-50
2024/01/08 03:20:40;;;;;;;;;;;8.10;90.10;;;;;;4993076;28;91169;-50
2024/01/08 03:23:06;;;;;;;;;;;8.00;90.10;;;;;;4992998;28;91929;-50
2024/01/08 03:25:31;;;;;;;;;;;8.00;90.10;;;;;;4992201;28;93189;-53
2024/01/08 03:27:57;;;;;;;;;;;8.00;90.10;;;;;;4992039;28;93062;-50
2024/01/08 03:30:23;;;;;;;;;;;8.10;90.20;;;;;;4992713;28;92961;-53
2024/01/08 03:32:48;;;;;;;;;;;8.00;90.10;;;;;;4993549;28;93358;-49
2024/01/08 03:35:17;;;;;;;;;;;8.00;90.20;;;;;;4995960;28;92067;-52
2024/01/08 03:37:42;;;;;;;;;;;8.00;90.20;;;;;;4997501;28;92498;-51
2024/01/08 03:40:08;;;;;;;;;;;8.00;90.10;;;;;;4996532;28;92036;-50
2024/01/08 03:42:34;;;;;;;;;;;8.00;90.20;;;;;;4997959;28;92267;-52
2024/01/08 03:44:59;;;;;;;;;;;8.00;90.60;;;;;;4996888;28;91715;-52
2024/01/08 03:47:25;;;;;;;;;;;8.00;90.20;;;;;;4995371;28;92378;-52
2024/01/08 03:49:51;;;;;;;;;;;8.00;90.20;;;;;;4995527;28;92775;-50
2024/01/08 03:52:17;;;;;;;;;;;8.00;90.20;;;;;;4992906;28;93521;-50
2024/01/08 03:54:42;;;;;;;;;;;8.00;90.20;;;;;;4997718;28;92139;-53
2024/01/08 03:57:08;;;;;;;;;;;8.00;90.10;;;;;;4998361;28;92087;-51
2024/01/08 03:59:33;;;;;;;;;;;8.00;90.20;;;;;;4996003;28;92017;-52
2024/01/08 04:01:59;;;;;;;;;;;8.00;90.20;;;;;;4995283;28;92007;-50
2024/01/08 04:04:24;;;;;;;;;;;8.00;90.30;;;;;;4993410;28;93503;-50
2024/01/08 04:06:50;;;;;;;;;;;8.00;90.20;;;;;;4995744;28;92123;-53
2024/01/08 04:09:17;;;;;;;;;;;8.00;90.30;;;;;;4997844;28;91685;-49
2024/01/08 04:11:42;;;;;;;;;;;8.00;90.20;;;;;;4994766;28;93384;-51
2024/01/08 04:14:08;;;;;;;;;;;8.00;90.20;;;;;;4993348;28;92117;-52
2024/01/08 04:16:36;;;;;;;;;;;8.00;90.30;;;;;;4997273;28;92781;-49
2024/01/08 04:19:02;;;;;;;;;;;8.00;90.20;;;;;;5000395;28;94076;-53
2024/01/08 04:21:27;;;;;;;;;;;8.00;90.20;;;;;;4995655;28;91991;-51
2024/01/08 04:23:53;;;;;;;;;;;8.00;90.20;;;;;;4997001;28;92463;-51
2024/01/08 04:26:20;;;;;;;;;;;8.00;90.30;;;;;;4995785;28;92096;-49
2024/01/08 04:28:46;;;;;;;;;;;8.00;90.30;;;;;;5000299;28;92396;-51
2024/01/08 04:31:18;;;;;;;;;;;8.00;90.30;;;;;;5001945;28;93603;-52
2024/01/08 04:33:44;;;;;;;;;;;8.00;90.30;;;;;;4994645;28;92005;-52
2024/01/08 04:36:09;;;;;;;;;;;8.00;90.30;;;;;;4999053;28;93852;-51
2024/01/08 04:38:35;;;;;;;;;;;7.90;90.20;;;;;;4996426;28;91907;-50
2024/01/08 04:41:01;;;;;;;;;;;7.90;90.30;;;;;;4996266;28;92969;-50
2024/01/08 04:43:26;;;;;;;;;;;7.90;90.20;;;;;;4995856;28;92275;-51
2024/01/08 04:45:52;;;;;;;;;;;7.90;90.20;;;;;;4994382;28;92002;-51
2024/01/08 04:48:18;;;;;;;;;;;7.90;90.20;;;;;;4997436;28;93347;-51
2024/01/08 04:50:43;;;;;;;;;;;7.90;90.20;;;;;;4993530;28;93461;-50
2024/01/08 04:53:09;;;;;;;;;;;8.00;90.30;;;;;;4996009;28;91806;-49
2024/01/08 04:55:34;;;;;;;;;;;8.00;90.30;;;;;;4994176;28;92077;-49
2024/01/08 04:58:00;;;;;;;;;;;8.00;90.30;;;;;;4995254;28;93029;-51
2024/01/08 05:00:25;;;;;;;;;;;7.90;90.20;;;;;;4997228;28;91985;-50
2024/01/08 05:02:51;;;;;;;;;;;7.90;90.30;;;;;;4995092;28;92491;-51
2024/01/08 05:05:17;;;;;;;;;;;8.00;90.30;;;;;;4999039;28;93073;-52
2024/01/08 05:07:42;;;;;;;;;;;7.90;90.20;;;;;;4996292;28;93692;-49
2024/01/08 05:10:08;;;;;;;;;;;7.90;90.20;;;;;;4998955;28;92708;-50
2024/01/08 05:12:33;;;;;;;;;;;7.90;90.20;;;;;;4994223;28;92056;-54
2024/01/08 05:15:00;;;;;;;;;;;7.90;90.20;;;;;;4992218;28;92832;-54
2024/01/08 05:17:25;;;;;;;;;;;7.90;90.20;;;;;;4993752;28;92304;-53
2024/01/08 05:19:52;;;;;;;;;;;7.90;90.30;;;;;;4994905;28;92152;-52
2024/01/08 05:22:18;;;;;;;;;;;7.90;90.20;;;;;;4997122;28;91681;-50
2024/01/08 05:24:45;;;;;;;;;;;7.90;90.20;;;;;;4992220;28;92019;-50
2024/01/08 05:27:10;;;;;;;;;;;7.90;90.20;;;;;;4993807;28;92731;-53
2024/01/08 05:29:36;;;;;;;;;;;7.90;90.30;;;;;;4991290;28;93433;-52
2024/01/08 05:32:02;;;;;;;;;;;7.90;90.30;;;;;;4994994;28;92101;-52
2024/01/08 05:34:27;;;;;;;;;;;7.90;90.20;;;;;;4993258;28;92756;-51
2024/01/08 05:36:53;;;;;;;;;;;7.90;90.20;;;;;;4994168;28;92716;-49
2024/01/08 05:39:19;;;;;;;;;;;7.90;90.30;;;;;;4993973;28;92003;-49
2024/01/08 05:41:45;;;;;;;;;;;7.90;90.30;;;;;;4993866;28;92898;-51
2024/01/08 05:44:10;;;;;;;;;;;7.90;90.30;;;;;;4999794;28;92542;-52
2024/01/08 05:46:40;;;;;;;;;;;7.90;90.20;;;;;;4996003;28;91613;-52
2024/01/08 05:49:06;;;;;;;;;;;7.90;90.30;;;;;;4987557;28;92439;-51
2024/01/08 05:51:31;;;;;;;;;;;7.90;90.30;;;;;;4992328;28;92639;-50
2024/01/08 05:53:57;;;;;;;;;;;7.90;90.30;;;;;;4994426;28;92992;-51
2024/01/08 05:56:23;;;;;;;;;;;7.80;90.30;;;;;;4992685;28;92434;-51
2024/01/08 05:58:48;;;;;;;;;;;7.90;90.30;;;;;;4994016;28;92037;-53
2024/01/08 06:01:14;;;;;;;;;;;7.80;90.30;;;;;;4997607;28;92173;-50
2024/01/08 06:03:39;;;;;;;;;;;7.90;90.30;;;;;;4992406;28;92512;-54
2024/01/08 06:06:05;;;;;;;;;;;7.90;90.30;;;;;;4997757;28;92047;-50
2024/01/08 06:08:31;;;;;;;;;;;7.80;90.60;;;;;;4993049;28;92419;-51
2024/01/08 06:10:57;;;;;;;;;;;7.90;90.30;;;;;;4991932;28;91471;-51
2024/01/08 06:13:22;;;;;;;;;;;7.90;90.30;;;;;;4995417;28;92033;-54
2024/01/08 06:15:48;;;;;;;;;;;7.80;90.20;;;;;;4995500;28;92909;-54
2024/01/08 06:18:14;;;;;;;;;;;7.90;90.30;;;;;;4990834;28;92867;-54
2024/01/08 06:20:39;;;;;;;;;;;7.80;90.30;;;;;;4994140;28;94011;-54
2024/01/08 06:23:05;;;;;;;;;;;7.80;90.20;;;;;;4991316;28;93577;-53
2024/01/08 06:25:31;;;;;;;;;;;7.80;90.30;;;;;;4989982;28;92168;-53
2024/01/08 06:27:56;;;;;;;;;;;7.80;90.30;;;;;;4993867;28;92926;-53
2024/01/08 06:30:22;;;;;;;;;;;7.80;90.30;;;;;;4993202;28;92172;-52
2024/01/08 06:32:47;;;;;;;;;;;7.80;90.30;;;;;;4989862;28;93826;-52
2024/01/08 06:35:13;;;;;;;;;;;7.80;90.30;;;;;;4992924;28;91823;-53
2024/01/08 06:37:40;;;;;;;;;;;7.80;90.30;;;;;;4990248;28;92038;-52
2024/01/08 06:40:06;;;;;;;;;;;7.80;90.30;;;;;;4995862;28;91998;-54
2024/01/08 06:42:32;;;;;;;;;;;7.80;90.30;;;;;;4994774;28;96252;-50
2024/01/08 06:44:57;;;;;;;;;;;7.80;90.30;;;;;;4998912;28;92382;-50
2024/01/08 06:47:23;;;;;;;;;;;7.80;90.30;;;;;;4991569;28;92126;-50
2024/01/08 06:49:49;;;;;;;;;;;7.80;90.20;;;;;;4999334;28;92260;-50
2024/01/08 06:52:14;;;;;;;;;;;7.70;90.30;;;;;;4993177;28;92102;-54
2024/01/08 06:54:40;;;;;;;;;;;7.80;90.30;;;;;;4991928;28;92424;-51
2024/01/08 06:57:06;;;;;;;;;;;7.70;90.30;;;;;;4995420;28;92032;-50
2024/01/08 06:59:31;;;;;;;;;;;7.70;90.20;;;;;;4995103;28;91616;-52
2024/01/08 07:01:57;;;;;;;;;;;7.70;90.20;;;;;;4994236;28;92452;-52
2024/01/08 07:04:22;;;;;;;;;;;7.70;90.30;;;;;;4991095;28;92751;-51
2024/01/08 07:06:48;;;;;;;;;;;7.70;90.30;;;;;;4989667;28;93666;-51
2024/01/08 07:09:13;;;;;;;;;;;7.70;90.30;;;;;;4995338;28;92469;-54
2024/01/08 07:11:39;;;;;;;;;;;7.70;90.30;;;;;;4990968;28;92046;-50
2024/01/08 07:14:04;;;;;;;;;;;7.70;90.30;;;;;;4999580;28;93592;-51
2024/01/08 07:16:30;;;;;;;;;;;7.70;90.30;;;;;;4996289;28;92016;-52
2024/01/08 07:18:56;;;;;;;;;;;7.70;90.20;;;;;;4997855;28;92085;-50
2024/01/08 07:21:22;;;;;;;;;;;7.70;90.20;;;;;;4991923;28;93658;-50
2024/01/08 07:23:49;;;;;;;;;;;7.70;90.20;;;;;;4992123;28;91391;-53
2024/01/08 07:26:16;;;;;;;;;;;7.70;90.20;;;;;;4994369;28;92058;-50
2024/01/08 07:28:45;;;;;;;;;;;7.70;90.20;;;;;;4996704;28;92683;-54
2024/01/08 07:31:12;;;;;;;;;;;7.70;90.20;;;;;;4999806;28;93017;-51
2024/01/08 07:33:37;;;;;;;;;;;7.70;90.20;;;;;;4991488;28;92471;-51
2024/01/08 07:36:04;;;;;;;;;;;7.70;90.20;;;;;;4998462;28;92640;-52
2024/01/08 07:38:30;;;;;;;;;;;7.70;90.30;;;;;;4999272;28;93072;-54
2024/01/08 07:40:55;;;;;;;;;;;7.70;90.20;;;;;;4993708;28;94551;-52
2024/01/08 07:43:21;;;;;;;;;;;7.60;90.20;;;;;;5000214;28;92180;-51
2024/01/08 07:45:46;;;;;;;;;;;7.60;90.20;;;;;;4997185;28;92405;-51
2024/01/08 07:48:12;;;;;;;;;;;7.60;90.20;;;;;;4998935;28;91796;-51
2024/01/08 07:50:38;;;;;;;;;;;7.60;90.20;;;;;;4991378;28;92067;-54
2024/01/08 07:53:04;;;;;;;;;;;7.60;90.20;;;;;;4998902;28;92650;-51
2024/01/08 07:55:29;;;;;;;;;;;7.60;90.20;;;;;;4993052;28;93723;-54
2024/01/08 07:57:55;;;;;;;;;;;7.60;90.30;;;;;;4994844;28;92620;-53
2024/01/08 08:00:22;;;;;;;;;;;7.60;90.20;;;;;;4994054;28;93880;-50
2024/01/08 08:02:48;;;;;;;;;;;7.60;90.20;;;;;;4993795;28;92034;-50
2024/01/08 08:05:13;;;;;;;;;;;7.60;90.20;;;;;;4998312;28;92063;-52
2024/01/08 08:07:39;;;;;;;;;;;7.60;90.20;;;;;;4993981;28;92393;-51
2024/01/08 08:10:05;;;;;;;;;;;7.60;90.20;;;;;;4993185;28;92016;-53
2024/01/08 08:12:32;;;;;;;;;;;7.60;90.20;;;;;;4996797;28;91855;-50
2024/01/08 08:14:58;;;;;;;;;;;7.60;90.20;;;;;;4998115;28;93566;-50
2024/01/08 08:17:24;;;;;;;;;;;7.50;90.20;;;;;;4997187;28;92995;-52
2024/01/08 08:19:49;;;;;;;;;;;7.60;90.50;;;;;;4993358;28;94614;-52
2024/01/08 08:22:15;;;;;;;;;;;7.50;90.20;;;;;;4993948;28;92020;-50
2024/01/08 08:24:41;;;;;;;;;;;7.60;90.10;;;;;;4993976;28;92863;-51
2024/01/08 08:27:10;;;;;;;;;;;7.50;90.10;;;;;;4998091;28;92715;-51
2024/01/08 08:29:42;;;;;;;;;;;7.50;90.10;;;;;;4996874;28;92092;-54
2024/01/08 08:32:08;;;;;;;;;;;7.50;90.10;;;;;;4995509;28;92044;-48
2024/01/08 08:34:34;;;;;;;;;;;7.50;90.40;;;;;;4994472;28;92922;-52
2024/01/08 08:37:00;;;;;;;;;;;7.50;90.10;;;;;;5003349;28;91834;-49
2024/01/08 08:39:26;;;;;;;;;;;7.50;90.10;;;;;;4992472;28;92530;-51
2024/01/08 08:41:51;;;;;;;;;;;7.50;90.10;;;;;;4995057;28;92201;-52
2024/01/08 08:44:17;;;;;;;;;;;7.50;90.10;;;;;;4992919;28;93009;-53
2024/01/08 08:46:45;;;;;;;;;;;7.50;90.10;;;;;;4997785;28;93575;-51
2024/01/08 08:49:12;;;;;;;;;;;7.50;90.10;;;;;;4996752;28;92019;-51
2024/01/08 08:51:37;;;;;;;;;;;7.50;90.10;;;;;;4994777;28;92935;-50
2024/01/08 08:54:04;;;;;;;;;;;7.50;90.10;;;;;;4994403;28;93538;-54
2024/01/08 08:56:30;;;;;;;;;;;7.40;90.10;;;;;;4994310;28;91909;-49
2024/01/08 08:58:56;;;;;;;;;;;7.50;90.10;;;;;;4995430;28;93103;-52
2024/01/08 09:01:22;;;;;;;;;;;7.50;90.30;;;;;;4995703;28;91352;-51
2024/01/08 09:03:47;;;;;;;;;;;7.40;90.00;;;;;;4994373;28;92068;-52
2024/01/08 09:06:13;;;;;;;;;;;7.50;90.10;;;;;;4996443;28;92492;-49
2024/01/08 09:08:39;;;;;;;;;;;7.50;90.00;;;;;;4993392;28;93666;-51
2024/01/08 09:11:04;;;;;;;;;;;7.40;90.00;;;;;;4996679;28;92658;-50
2024/01/08 09:13:30;;;;;;;;;;;7.40;90.00;;;;;;4989928;28;93392;-51
2024/01/08 09:15:55;;;;;;;;;;;7.40;90.20;;;;;;4995034;28;92086;-51
2024/01/08 09:18:21;;;;;;;;;;;7.40;90.00;;;;;;5000084;28;91944;-50
2024/01/08 09:20:47;;;;;;;;;;;7.40;90.00;;;;;;4992515;28;92249;-52
2024/01/08 09:23:13;;;;;;;;;;;7.40;89.90;;;;;;4994004;28;92047;-50
2024/01/08 09:25:38;;;;;;;;;;;7.40;89.90;;;;;;4996000;28;92555;-51
2024/01/08 09:28:04;;;;;;;;;;;7.40;90.00;;;;;;4994478;28;92140;-51
2024/01/08 09:30:30;;;;;;;;;;;7.40;89.90;;;;;;4998015;28;92188;-51
2024/01/08 09:32:55;;;;;;;;;;;7.40;90.00;;;;;;4998253;28;93340;-51
2024/01/08 09:35:21;;;;;;;;;;;7.40;89.90;;;;;;4996871;28;92055;-50
2024/01/08 09:37:46;;;;;;;;;;;7.40;89.80;;;;;;4996366;28;92110;-51
2024/01/08 09:40:12;;;;;;;;;;;7.40;90.00;;;;;;5000057;28;93574;-50
2024/01/08 09:42:39;;;;;;;;;;;7.40;90.00;;;;;;4996020;28;93512;-49
2024/01/08 09:45:07;;;;;;;;;;;7.30;90.00;;;;;;4996188;28;92549;-53
2024/01/08 09:47:33;;;;;;;;;;;7.40;89.90;;;;;;4991889;28;92127;-51
2024/01/08 09:50:00;;;;;;;;;;;7.40;89.80;;;;;;4998607;28;91966;-50
2024/01/08 09:52:26;;;;;;;;;;;7.40;89.90;;;;;;4992019;28;92589;-49
2024/01/08 09:54:52;;;;;;;;;;;7.30;90.00;;;;;;4995091;28;92022;-49
2024/01/08 09:57:17;;;;;;;;;;;7.30;89.90;;;;;;4988036;28;93036;-50
2024/01/08 09:59:43;;;;;;;;;;;7.30;90.00;;;;;;4994397;28;92509;-50
2024/01/08 10:02:18;;;;;;;;;;;7.30;90.00;;;;;;4995309;28;91969;-50
2024/01/08 10:04:43;;;;;;;;;;;7.30;90.20;;;;;;4997409;28;92546;-52
2024/01/08 10:07:12;;;;;;;;;;;7.30;89.90;;;;;;4994140;28;92119;-52
2024/01/08 10:09:38;;;;;;;;;;;7.30;90.00;;;;;;4992771;28;92072;-50
2024/01/08 10:12:06;;;;;;;;;;;7.30;90.00;;;;;;4991137;28;92508;-51
2024/01/08 10:14:31;;;;;;;;;;;7.30;90.00;;;;;;4995101;28;92092;-51
2024/01/08 10:16:57;;;;;;;;;;;7.20;90.00;;;;;;4993096;28;93504;-50
2024/01/08 10:19:27;;;;;;;;;;;7.30;90.30;;;;;;4992945;28;92655;-51
2024/01/08 10:22:09;;;;;;;;;;;7.30;89.90;;;;;;4994501;28;93078;-52
2024/01/08 10:24:35;;;;;;;;;;;7.30;90.00;;;;;;4993163;28;93777;-53
2024/01/08 10:27:01;;;;;;;;;;;7.30;90.00;;;;;;4989901;28;92068;-49
2024/01/08 10:29:27;;;;;;;;;;;7.20;89.90;;;;;;4995456;28;92273;-51
2024/01/08 10:31:53;;;;;;;;;;;7.30;90.00;;;;;;4994852;28;92450;-50
2024/01/08 10:34:19;;;;;;;;;;;7.20;90.00;;;;;;4990730;28;92143;-53
2024/01/08 10:36:45;;;;;;;;;;;7.30;90.00;;;;;;4992986;28;92960;-52
2024/01/08 10:39:11;;;;;;;;;;;7.30;89.90;;;;;;5002208;28;91892;-50
2024/01/08 10:41:37;;;;;;;;;;;7.30;89.90;;;;;;4995684;28;93078;-51
2024/01/08 10:44:03;;;;;;;;;;;7.20;89.90;;;;;;4992268;28;92069;-51
2024/01/08 10:46:33;;;;;;;;;;;7.20;89.80;;;;;;4994521;28;94428;-51
2024/01/08 10:48:59;;;;;;;;;;;7.20;89.80;;;;;;4992369;28;92667;-52
2024/01/08 10:51:24;;;;;;;;;;;7.20;89.80;;;;;;4993130;28;92576;-49
2024/01/08 10:53:50;;;;;;;;;;;7.20;89.80;;;;;;4988827;28;92035;-50
2024/01/08 10:56:22;;;;;;;;;;;7.20;89.90;;;;;;4994898;28;93213;-51
2024/01/08 10:59:11;;;;;;;;;;;7.20;89.90;;;;;;4995623;28;93608;-52
2024/01/08 11:01:37;;;;;;;;;;;7.20;89.90;;;;;;4994701;28;92033;-53
2024/01/08 11:04:04;;;;;;;;;;;7.20;89.80;;;;;;4998842;28;91690;-49
2024/01/08 11:06:30;;;;;;;;;;;7.20;89.60;;;;;;4993379;28;93463;-51
2024/01/08 11:08:57;;;;;;;;;;;7.20;89.70;;;;;;4997602;28;91783;-54
2024/01/08 11:11:22;;;;;;;;;;;7.20;89.70;;;;;;4990266;28;93623;-50
2024/01/08 11:13:48;;;;;;;;;;;7.10;89.70;;;;;;4990259;28;92075;-50
2024/01/08 11:16:18;;;;;;;;;;;7.20;89.80;;;;;;4992101;28;91948;-50
2024/01/08 11:18:44;;;;;;;;;;;7.20;89.70;;;;;;4995949;28;92444;-52
2024/01/08 11:21:09;;;;;;;;;;;7.20;89.80;;;;;;4990952;28;92084;-51
2024/01/08 11:23:38;;;;;;;;;;;7.20;89.90;;;;;;4992103;28;93747;-50
2024/01/08 11:26:10;;;;;;;;;;;7.10;89.70;;;;;;4996766;28;93804;-50
2024/01/08 11:28:36;;;;;;;;;;;7.20;89.70;;;;;;4995166;28;91269;-53
2024/01/08 11:31:20;;;;;;;;;;;7.10;89.70;;;;;;4993444;28;95217;-52
2024/01/08 11:33:46;;;;;;;;;;;7.10;89.80;;;;;;4992149;28;92151;-49
2024/01/08 11:36:17;;;;;;;;;;;7.10;89.60;;;;;;4990491;28;92970;-50
2024/01/08 11:38:58;;;;;;;;;;;7.10;89.60;;;;;;4992831;28;92743;-49
2024/01/08 11:41:24;;;;;;;;;;;7.10;89.60;;;;;;4987100;28;92001;-53
2024/01/08 11:43:49;;;;;;;;;;;7.10;89.70;;;;;;4988678;28;92022;-51
2024/01/08 11:46:15;;;;;;;;;;;7.10;89.60;;;;;;4991257;28;93594;-49
2024/01/08 11:48:41;;;;;;;;;;;7.10;89.60;;;;;;4995972;28;92182;-49
2024/01/08 11:51:07;;;;;;;;;;;7.10;89.60;;;;;;4993780;28;92078;-53
2024/01/08 11:53:33;;;;;;;;;;;7.10;89.50;;;;;;4997855;28;91340;-50
2024/01/08 11:55:59;;;;;;;;;;;7.10;89.50;;;;;;4996247;28;92114;-52
2024/01/08 11:58:24;;;;;;;;;;;7.10;89.50;;;;;;4993155;28;92356;-51
2024/01/08 12:00:50;;;;;;;;;;;7.10;89.50;;;;;;4998569;28;93048;-49
2024/01/08 12:03:21;;;;;;;;;;;7.10;89.50;;;;;;4993441;28;93708;-50
2024/01/08 12:06:00;;;;;;;;;;;7.10;89.50;;;;;;4996567;28;92818;-52
2024/01/08 12:08:29;;;;;;;;;;;7.00;89.50;;;;;;4995522;28;92041;-49
2024/01/08 12:10:55;;;;;;;;;;;7.10;89.60;;;;;;4994211;28;93023;-50
2024/01/08 12:13:20;;;;;;;;;;;7.00;89.60;;;;;;4998539;28;92000;-51
2024/01/08 12:15:48;;;;;;;;;;;7.00;89.50;;;;;;4995443;28;92043;-51
2024/01/08 12:18:13;;;;;;;;;;;7.00;89.50;;;;;;4994181;28;91729;-52
2024/01/08 12:20:39;;;;;;;;;;;7.00;89.40;;;;;;4998056;28;92003;-52
2024/01/08 12:23:05;;;;;;;;;;;7.00;89.50;;;;;;4994563;28;92059;-50
2024/01/08 12:25:30;;;;;;;;;;;7.00;89.50;;;;;;4998546;28;96050;-51
2024/01/08 12:27:59;;;;;;;;;;;7.00;89.40;;;;;;4992904;28;92133;-51
2024/01/08 12:30:28;;;;;;;;;;;7.00;89.50;;;;;;4997974;28;92981;-54
2024/01/08 12:32:54;;;;;;;;;;;7.00;89.40;;;;;;4994701;28;93616;-51
2024/01/08 12:35:19;;;;;;;;;;;7.00;89.40;;;;;;4993291;28;92186;-52
2024/01/08 12:37:45;;;;;;;;;;;7.00;89.30;;;;;;4994700;28;92694;-50
2024/01/08 12:40:11;;;;;;;;;;;7.00;89.30;;;;;;4993614;28;92036;-49
2024/01/08 12:42:37;;;;;;;;;;;7.00;89.40;;;;;;4996487;28;92521;-50
2024/01/08 12:45:05;;;;;;;;;;;7.00;89.40;;;;;;4994470;28;93481;-49
2024/01/08 12:47:31;;;;;;;;;;;7.00;89.40;;;;;;4992956;28;92036;-49
2024/01/08 12:49:56;;;;;;;;;;;7.00;89.40;;;;;;4997745;28;92990;-51
2024/01/08 12:52:22;;;;;;;;;;;7.00;89.40;;;;;;4994198;28;92520;-53
2024/01/08 12:54:48;;;;;;;;;;;7.00;89.40;;;;;;4992616;28;92225;-52
2024/01/08 12:57:15;;;;;;;;;;;6.90;89.20;;;;;;4995470;28;92759;-50
2024/01/08 12:59:54;;;;;;;;;;;6.90;89.30;;;;;;4996629;28;92060;-50
2024/01/08 13:02:20;;;;;;;;;;;6.90;89.30;;;;;;4992658;28;93065;-51
2024/01/08 13:04:45;;;;;;;;;;;6.90;89.30;;;;;;4989025;28;93558;-50
2024/01/08 13:07:11;;;;;;;;;;;6.90;89.30;;;;;;4996872;28;91282;-50
2024/01/08 13:09:38;;;;;;;;;;;6.90;89.40;;;;;;4995538;28;92028;-49
2024/01/08 13:12:03;;;;;;;;;;;6.90;89.30;;;;;;4994544;28;93588;-50
2024/01/08 13:14:29;;;;;;;;;;;6.90;89.20;;;;;;4988944;28;92955;-51
2024/01/08 13:16:55;;;;;;;;;;;6.90;89.10;;;;;;4997321;28;93930;-50
2024/01/08 13:19:21;;;;;;;;;;;6.90;89.10;;;;;;4992272;28;92119;-50
2024/01/08 13:21:47;;;;;;;;;;;6.90;89.80;;;;;;4996767;28;92044;-51
2024/01/08 13:24:14;;;;;;;;;;;6.80;89.10;;;;;;4993584;28;93631;-50
2024/01/08 13:26:40;;;;;;;;;;;6.90;89.20;;;;;;4994513;28;92148;-53
2024/01/08 13:29:06;;;;;;;;;;;6.80;89.10;;;;;;4994121;28;92047;-52
2024/01/08 13:31:32;;;;;;;;;;;6.90;89.20;;;;;;4992084;28;92936;-52
2024/01/08 13:33:58;;;;;;;;;;;6.80;89.10;;;;;;4997998;28;91943;-53
2024/01/08 13:36:23;;;;;;;;;;;6.80;89.10;;;;;;4994452;28;91951;-49
2024/01/08 13:38:49;;;;;;;;;;;6.80;89.00;;;;;;4999243;28;93491;-53
2024/01/08 13:41:14;;;;;;;;;;;6.80;89.10;;;;;;4990455;28;92695;-51
2024/01/08 13:43:40;;;;;;;;;;;6.80;89.20;;;;;;4994737;28;92451;-52
2024/01/08 13:46:09;;;;;;;;;;;6.80;89.00;;;;;;4994405;28;92034;-52
2024/01/08 13:48:39;;;;;;;;;;;6.80;89.00;;;;;;4993465;28;92926;-50
2024/01/08 13:51:05;;;;;;;;;;;6.80;89.10;;;;;;4994556;28;93628;-50
2024/01/08 13:53:30;;;;;;;;;;;6.80;89.10;;;;;;4993165;28;92171;-50
2024/01/08 13:55:56;;;;;;;;;;;6.80;89.00;;;;;;4994346;28;91704;-50
2024/01/08 13:58:21;;;;;;;;;;;6.80;89.00;;;;;;4992023;28;92427;-51
2024/01/08 14:00:48;;;;;;;;;;;6.80;88.90;;;;;;4993682;28;92155;-50
2024/01/08 14:03:14;;;;;;;;;;;6.80;88.80;;;;;;4994641;28;93423;-52
2024/01/08 14:05:39;;;;;;;;;;;6.80;88.90;;;;;;4995764;28;92122;-50
2024/01/08 14:08:05;;;;;;;;;;;6.70;88.90;;;;;;4996041;28;92136;-50
2024/01/08 14:10:31;;;;;;;;;;;6.70;89.00;;;;;;4991781;28;92105;-50
2024/01/08 14:12:57;;;;;;;;;;;6.70;89.00;;;;;;4993211;28;92004;-49
2024/01/08 14:15:24;;;;;;;;;;;6.70;89.00;;;;;;4996312;28;92339;-50
2024/01/08 14:17:50;;;;;;;;;;;6.70;88.90;;;;;;4991369;28;93643;-50
2024/01/08 14:20:15;;;;;;;;;;;6.70;89.00;;;;;;4993953;28;91335;-50
2024/01/08 14:22:41;;;;;;;;;;;6.70;89.00;;;;;;4996410;28;92071;-53
2024/01/08 14:25:09;;;;;;;;;;;6.70;89.10;;;;;;4994452;28;93825;-51